Latest Weather Observations for Coonamble

IDN60801

Issued at 6:03 am EDT Sunday 14 February 2016 (issued every 30 minutes, with the page automatically refreshed every 10 minutes)

About weather observations | Map of weather stations | Latest weather observations for NSW | Other Formats
Station Details ID: 051161 Name: COONAMBLE AIRPORT AWS Lat: -30.98 Lon: 148.38 Height: 181.3 m
Data from the previous 72 hours. | See also: Recent months at Coonamble
Date/Time
EDT
Temp
°C
App
Temp
°C
Dew
Point
Rel
Hum
%
Delta-T
°C
Wind Press
QNH
hPa
Press
MSL
hPa
Rain
since 9 am
mm
Dir
 
Spd
km/h
Gust
km/h
Spd
kts
Gust
kts
14/06:00am 19.0 16.7 10.3 57 4.7 ENE 13 17 7 9 1009.3 1008.2 0.0
14/05:30am 19.0 16.2 10.0 56 4.9 ENE 15 17 8 9 1008.9 1007.8 0.0
14/05:00am 20.0 17.1 9.6 51 5.6 ENE 15 17 8 9 1008.7 1007.6 0.0
14/04:30am 19.9 17.4 9.8 52 5.4 ENE 13 15 7 8 1008.5 1007.4 0.0
14/04:00am 20.4 17.9 9.6 50 5.8 ENE 13 15 7 8 1008.5 1007.4 0.0
14/03:30am 20.3 17.7 9.5 50 5.8 ENE 13 15 7 8 1008.4 1007.3 0.0
14/03:00am 21.4 19.1 9.0 45 6.7 ENE 11 11 6 6 1008.4 1007.3 0.0
14/02:30am 21.9 19.9 8.8 43 7.0 ENE 9 11 5 6 1008.5 1007.4 0.0
14/02:00am 22.0 19.8 9.2 44 6.9 ENE 11 13 6 7 1008.7 1007.6 0.0
14/01:30am 22.2 19.9 9.0 43 7.1 NE 11 15 6 8 1008.8 1007.7 0.0
14/01:00am 22.8 20.6 9.2 42 7.4 ENE 11 13 6 7 1009.0 1007.9 0.0
14/12:30am 23.3 21.1 9.3 41 7.6 ENE 11 13 6 7 1009.3 1008.2 0.0
14/12:00am 23.3 20.6 9.0 40 7.8 ENE 13 15 7 8 1009.5 1008.4 0.0
 
Date/Time
EDT
Temp
°C
App
Temp
°C
Dew
Point
Rel
Hum
%
Delta-T
°C
Wind Press
QNH
hPa
Press
MSL
hPa
Rain
since 9 am
mm
Dir
 
Spd
km/h
Gust
km/h
Spd
kts
Gust
kts
13/11:30pm 23.8 21.6 9.4 40 7.9 ENE 11 15 6 8 1009.7 1008.6 0.0
13/11:00pm 24.6 22.2 10.1 40 8.1 E 13 17 7 9 1009.9 1008.8 0.0
13/10:30pm 25.4 24.3 11.9 43 7.8 E 9 13 5 7 1010.1 1009.0 0.0
13/10:00pm 26.9 25.1 9.3 33 9.8 ESE 9 11 5 6 1010.1 1009.0 0.0
13/09:30pm 27.1 26.0 10.8 36 9.3 SE 7 9 4 5 1009.9 1008.8 0.0
13/09:00pm 26.8 25.9 11.3 38 8.9 S 7 9 4 5 1009.7 1008.6 0.0
13/08:30pm 28.0 27.0 10.2 33 10.1 SSW 6 7 3 4 1009.4 1008.3 0.0
13/08:00pm 29.7 28.0 9.8 29 11.3 S 9 11 5 6 1009.2 1008.1 0.0
13/07:30pm 31.9 29.7 9.4 25 12.8 S 11 15 6 8 1008.8 1007.7 0.0
13/07:00pm 33.6 32.4 11.5 26 13.1 SSW 9 13 5 7 1008.6 1007.5 0.0
13/06:30pm 34.0 30.9 7.1 19 14.9 S 13 17 7 9 - - 0.0
13/06:00pm 35.0 32.8 9.4 21 14.8 SSW 11 19 6 10 - - 0.0
13/05:30pm 34.2 30.7 8.8 21 14.5 S 17 24 9 13 - - 0.0
13/05:00pm 34.6 32.1 9.8 22 14.4 SSW 13 22 7 12 - - 0.0
13/04:30pm 34.7 33.4 9.9 22 14.4 SW 7 13 4 7 - - 0.0
13/04:00pm 34.3 31.8 8.1 20 14.8 SSE 11 20 6 11 - - 0.0
13/03:30pm 34.3 32.9 10.8 24 13.8 ESE 9 20 5 11 1010.3 1009.2 0.0
13/03:00pm 34.1 33.2 10.7 24 13.7 WNW 6 9 3 5 1010.7 1009.7 0.0
13/02:30pm 33.2 31.0 9.3 23 13.7 SSE 11 15 6 8 1011.1 1010.1 0.0
13/02:00pm 32.7 31.1 8.9 23 13.5 SSW 7 13 4 7 1011.7 1010.6 0.0
13/01:30pm 31.7 30.0 9.8 26 12.5 ENE 9 15 5 8 1012.2 1011.1 0.0
13/01:00pm 31.2 30.1 12.1 31 11.3 N 9 17 5 9 1012.6 1011.5 0.0
13/12:30pm 31.0 29.5 11.9 31 11.3 N 11 17 6 9 1013.1 1012.0 0.0
13/12:00pm 29.6 28.2 12.1 34 10.3 N 11 20 6 11 1013.5 1012.4 0.0
13/11:30am 29.2 27.8 13.4 38 9.5 NNW 13 19 7 10 1013.8 1012.7 0.0
13/11:00am 28.5 26.9 14.0 41 8.7 NNW 15 20 8 11 1013.9 1012.8 0.0
13/10:30am 27.6 25.8 13.2 41 8.5 N 15 22 8 12 1014.0 1012.9 0.0
13/10:00am 26.8 25.2 13.9 45 7.7 NNE 15 22 8 12 1014.0 1012.9 0.0
13/09:30am 25.8 23.1 13.6 47 7.2 NNE 20 26 11 14 1014.1 1013.0 0.0
13/09:00am 25.3 23.3 13.8 49 6.8 NNE 17 24 9 13 1014.0 1012.9 0.0
13/08:30am 24.0 22.8 14.1 54 5.9 NE 13 20 7 11 1014.1 1013.0 0.0
13/08:00am 22.0 21.7 15.4 66 4.0 ENE 11 13 6 7 1013.8 1012.7 0.0
13/07:30am 20.2 19.9 15.4 74 2.9 ENE 11 15 6 8 1013.5 1012.4 0.0
13/07:00am 18.7 18.2 15.0 79 2.2 ENE 11 13 6 7 1013.1 1012.0 0.0
13/06:30am 19.0 18.2 15.1 78 2.3 ENE 13 17 7 9 1012.8 1011.7 0.0
13/06:00am 18.5 17.8 14.4 77 2.4 ENE 11 13 6 7 1012.6 1011.5 0.0
13/05:30am 19.4 19.2 14.6 74 2.8 ENE 9 13 5 7 1012.4 1011.3 0.0
13/05:00am 20.4 19.4 14.5 69 3.5 NE 13 19 7 10 1012.1 1011.0 0.0
13/04:30am 20.2 19.1 14.3 69 3.5 ENE 13 15 7 8 1012.0 1010.9 0.0
13/04:00am 21.5 20.4 14.2 63 4.3 NE 13 17 7 9 1011.9 1010.8 0.0
13/03:30am 22.0 20.1 14.1 61 4.6 ENE 17 22 9 12 1011.7 1010.6 0.0
13/03:00am 21.7 20.1 13.9 61 4.6 ENE 15 20 8 11 1011.7 1010.6 0.0
13/02:30am 22.4 20.7 13.5 57 5.2 ENE 15 20 8 11 1011.8 1010.7 0.0
13/02:00am 23.5 21.2 13.1 52 6.1 E 17 24 9 13 1011.9 1010.8 0.0
13/01:30am 22.8 21.9 13.8 57 5.3 ENE 11 15 6 8 1012.0 1010.9 0.0
13/01:00am 23.7 21.4 14.1 55 5.7 ENE 19 24 10 13 1012.1 1011.0 0.0
13/12:30am 22.4 21.7 15.3 64 4.3 ENE 13 17 7 9 1012.1 1011.0 0.0
13/12:00am 22.2 21.6 14.6 62 4.5 E 11 13 6 7 1012.1 1011.0 0.0
 
Date/Time
EDT
Temp
°C
App
Temp
°C
Dew
Point
Rel
Hum
%
Delta-T
°C
Wind Press
QNH
hPa
Press
MSL
hPa
Rain
since 9 am
mm
Dir
 
Spd
km/h
Gust
km/h
Spd
kts
Gust
kts
12/11:30pm 22.8 22.7 14.9 61 4.7 E 9 11 5 6 1012.0 1010.9 0.0
12/11:00pm 24.2 24.1 14.9 56 5.6 E 9 11 5 6 1012.1 1011.0 0.0
12/10:30pm 25.2 25.1 14.9 52 6.2 ENE 9 9 5 5 1012.3 1011.2 0.0
12/10:00pm 25.5 25.4 14.9 52 6.4 ENE 9 11 5 6 1012.3 1011.2 0.0
12/09:30pm 26.3 26.0 13.4 45 7.6 ENE 7 9 4 5 1012.3 1011.2 0.0
12/09:00pm 26.3 25.4 12.7 43 8.0 ENE 9 9 5 5 1012.2 1011.1 0.0
12/08:30pm 27.5 26.9 12.3 39 8.9 ENE 7 7 4 4 1011.9 1010.8 0.0
12/08:00pm 27.5 26.1 12.3 39 8.9 ENE 11 13 6 7 1011.8 1010.7 0.0
12/07:30pm 29.7 27.0 11.7 33 10.5 E 17 20 9 11 1011.5 1010.5 0.0
12/07:00pm 31.3 28.9 10.1 27 12.2 E 13 17 7 9 1011.0 1010.0 0.0
12/06:30pm 31.7 28.1 9.8 26 12.5 E 19 26 10 14 1010.9 1009.9 0.0
12/06:00pm 32.7 28.3 8.9 23 13.5 E 22 39 12 21 1011.1 1010.1 0.0
12/05:30pm 32.3 27.5 13.0 31 11.6 ESE 30 46 16 25 1011.1 1010.1 0.0
12/05:20pm 32.2 30.6 11.4 28 12.2 SSE 11 52 6 28 1011.1 1010.1 0.0
12/05:00pm 34.3 33.8 9.5 22 14.3 ENE 2 9 1 5 1011.0 1010.0 0.0
12/04:30pm 34.1 33.1 12.4 26 13.1 W 9 13 5 7 1011.1 1010.1 0.0
12/04:00pm 33.7 32.9 10.9 25 13.4 W 6 11 3 6 1011.3 1010.3 0.0
12/03:30pm 33.5 32.6 11.4 26 13.1 E 7 28 4 15 1011.7 1010.6 0.0
12/03:00pm 32.8 31.7 11.9 28 12.4 NNE 9 13 5 7 1012.3 1011.2 0.0
12/02:30pm 31.9 30.5 12.2 30 11.7 NE 11 19 6 10 1012.7 1011.6 0.0
12/02:00pm 32.0 30.9 14.2 34 10.9 ENE 13 24 7 13 1013.0 1011.9 0.0
12/01:30pm 31.2 29.3 13.0 33 10.9 NNE 15 22 8 12 1013.3 1012.2 0.0
12/01:00pm 31.3 31.0 16.5 41 9.4 NE 13 24 7 13 1013.5 1012.4 0.0
12/12:30pm 30.3 28.1 14.4 38 9.7 NE 19 28 10 15 1013.9 1012.8 0.0
12/12:00pm 29.3 27.4 14.3 40 9.1 NNE 17 24 9 13 1014.4 1013.3 0.0
12/11:30am 29.1 27.1 14.9 42 8.7 N 19 28 10 15 1014.7 1013.6 0.0
12/11:00am 28.2 26.1 14.8 44 8.2 N 19 30 10 16 1015.0 1013.9 0.0
12/10:30am 27.7 25.8 15.7 48 7.4 NNE 20 26 11 14 1015.1 1014.0 0.0
12/10:00am 27.2 25.4 15.6 49 7.1 NE 19 26 10 14 1014.9 1013.8 0.0
12/09:30am 26.4 24.3 15.1 49 6.9 NNE 20 28 11 15 1015.2 1014.1 0.0
12/09:00am 26.0 24.2 15.4 52 6.5 NNE 19 26 10 14 1015.3 1014.2 0.0
12/08:30am 25.1 23.1 14.9 53 6.2 NNE 19 30 10 16 1014.9 1013.8 0.0
12/08:00am 24.0 23.3 15.5 59 5.2 NNE 13 17 7 9 1014.2 1013.1 0.0
12/07:30am 23.0 22.6 15.1 61 4.7 NNE 11 15 6 8 1013.8 1012.7 0.0
12/07:00am 21.9 21.4 14.8 64 4.2 NNE 11 15 6 8 1013.5 1012.4 0.0
12/06:30am 22.2 21.2 14.6 62 4.5 NE 13 17 7 9 1012.9 1011.8 0.0
12/06:00am 21.7 21.1 14.6 64 4.2 NE 11 13 6 7 1012.6 1011.5 0.0
12/05:30am 21.6 21.7 14.0 62 4.5 E 6 7 3 4 1012.3 1011.2 0.0
12/05:00am 21.2 20.7 13.9 63 4.3 ENE 9 13 5 7 1011.9 1010.8 0.0
12/04:30am 21.3 20.4 13.7 62 4.4 E 11 15 6 8 1011.7 1010.6 0.0
12/04:00am 22.7 22.0 13.2 55 5.5 E 9 11 5 6 1012.1 1011.0 0.0
12/03:30am 23.4 22.0 13.3 53 5.9 SE 13 17 7 9 1012.1 1011.0 0.0
12/03:00am 24.1 21.2 13.0 50 6.5 SE 20 26 11 14 1012.5 1011.4 0.0
12/02:30am 24.2 22.0 12.2 47 6.9 SSE 15 20 8 11 1012.6 1011.5 0.0
12/02:00am 24.0 22.1 12.9 50 6.5 SE 15 22 8 12 1013.1 1012.0 0.0
12/01:30am 23.6 24.2 13.2 52 6.1 NNE 2 7 1 4 1013.7 1012.6 0.0
12/01:00am 23.5 24.7 13.7 54 5.8 CALM 0 6 0 3 1013.9 1012.8 0.0
12/12:30am 24.1 22.4 12.4 48 6.7 SSE 13 15 7 8 1013.5 1012.4 0.0
12/12:00am 24.7 22.5 12.0 45 7.3 SSE 15 22 8 12 1013.3 1012.2 0.0
 
Date/Time
EDT
Temp
°C
App
Temp
°C
Dew
Point
Rel
Hum
%
Delta-T
°C
Wind Press
QNH
hPa
Press
MSL
hPa
Rain
since 9 am
mm
Dir
 
Spd
km/h
Gust
km/h
Spd
kts
Gust
kts
11/11:30pm 25.6 22.0 11.7 42 8.0 SE 22 32 12 17 1013.4 1012.3 0.0
11/11:00pm 25.7 24.1 11.5 41 8.1 SSW 11 17 6 9 1013.4 1012.3 0.0
11/10:30pm 26.3 22.4 10.9 38 8.7 S 22 30 12 16 1013.0 1011.9 0.0
11/10:00pm 26.5 21.4 10.6 37 9.0 SSW 28 43 15 23 1012.9 1011.8 0.0
11/09:30pm 27.6 21.1 9.0 31 10.3 SSW 33 44 18 24 1012.6 1011.5 0.0
11/09:00pm 28.1 21.8 8.9 30 10.6 SW 32 41 17 22 1012.3 1011.2 0.0
11/08:30pm 29.2 22.3 8.8 28 11.4 SSW 35 48 19 26 1011.7 1010.6 0.0
11/08:22pm 29.1 24.4 9.3 29 11.1 SW 24 48 13 26 1011.5 1010.5 0.0
11/08:18pm 28.5 26.1 10.2 32 10.4 NNE 13 35 7 19 1011.3 1010.3 0.0
11/08:00pm 29.1 28.1 10.3 31 10.7 NNE 6 6 3 3 1010.3 1009.2 0.0
11/07:30pm 30.9 29.6 9.2 26 12.3 NNE 6 7 3 4 1010.1 1009.0 0.0
11/07:00pm 31.4 28.4 7.8 23 13.1 ENE 13 20 7 11 1009.6 1008.5 0.0
11/06:30pm 32.4 30.6 8.0 22 13.6 SE 7 28 4 15 1009.4 1008.3 0.0
11/06:00pm 33.7 32.2 8.3 21 14.4 E 6 11 3 6 1009.0 1007.9 0.0
11/05:30pm 33.9 33.5 9.9 23 13.9 NE 2 7 1 4 1009.0 1007.9 0.0
11/05:00pm 34.2 33.1 10.1 23 14.0 SE 6 7 3 4 1009.2 1008.1 0.0
11/04:30pm 33.8 33.0 9.8 23 13.9 WNW 4 9 2 5 1009.6 1008.5 0.0
11/04:00pm 34.0 33.4 11.8 26 13.2 ENE 6 9 3 5 1010.1 1009.0 0.0
11/03:30pm 33.0 31.8 11.5 27 12.7 NE 9 19 5 10 1010.6 1009.6 0.0
11/03:00pm 33.4 31.9 10.7 25 13.3 SSE 9 13 5 7 1011.2 1010.2 0.0
11/02:30pm 33.9 33.5 11.1 25 13.4 SSE 4 9 2 5 1011.7 1010.6 0.0
11/02:00pm 33.1 31.6 8.5 22 13.9 SSW 6 15 3 8 1012.1 1011.0 0.0
11/01:30pm 32.6 30.8 8.1 22 13.7 SSE 7 13 4 7 1012.4 1011.3 0.0
11/01:00pm 31.9 31.6 12.7 31 11.5 SE 6 11 3 6 1012.7 1011.6 0.0
11/12:30pm 31.2 29.9 10.0 27 12.1 NE 7 9 4 5 1013.1 1012.0 0.0
11/12:00pm 30.9 30.6 12.8 33 10.8 NNE 6 9 3 5 1013.3 1012.2 0.0
11/11:30am 30.1 29.7 13.0 35 10.2 NNE 7 15 4 8 1013.6 1012.5 0.0
11/11:00am 28.6 26.8 13.3 39 9.1 NNE 15 22 8 12 1013.6 1012.5 0.0
11/10:30am 27.9 26.0 14.2 43 8.3 N 17 20 9 11 1013.7 1012.6 0.0
11/10:00am 26.9 25.4 15.3 49 7.1 NNE 17 24 9 13 1013.7 1012.6 0.0
11/09:30am 26.0 24.3 14.8 50 6.8 NNE 17 24 9 13 1014.0 1012.9 0.0
11/09:00am 25.1 23.4 14.6 52 6.3 NNE 17 24 9 13 1014.1 1013.0 0.0
11/08:30am 24.0 22.0 13.8 53 6.0 NNE 17 24 9 13 1014.0 1012.9 0.0
11/08:00am 22.4 20.3 13.5 57 5.2 NE 17 24 9 13 1013.6 1012.5 0.0
11/07:30am 19.5 18.0 13.0 66 3.7 ENE 13 17 7 9 1013.1 1012.0 0.0
11/07:00am 18.6 17.5 11.9 65 3.7 E 9 11 5 6 1012.9 1011.8 0.0
11/06:30am 18.0 15.9 11.3 65 3.7 E 13 15 7 8 1012.3 1011.2 0.0

Other Formats:

Comma delimited format used in spreadsheet applications
http://www.bom.gov.au/fwo/IDN60801/IDN60801.95718.axf

JavaScript Object Notation format (JSON) in row-major order
http://www.bom.gov.au/fwo/IDN60801/IDN60801.95718.json